Skip Navigation Links Skip Navigation Links

Current Weather

Culpeper Regional, Culpeper, Va.

For information only: do not use for flight planning or navigation.
Latest weather
Observation time Sunday, August 1, 2021 5:35 AM EDT
Local time Sunday, August 1, 2021 7:18 AM EDT
Flight conditions Low Instrument Meteorological Conditions
Winds
Wind speed calm
Visibility 4 mi.
Present weather mist
Sky condition
Ceiling 400 ft. broken clouds
Cloud layer broken clouds 400 ft.
Cloud layer overcast 1,500 ft.
Temperature 70°F
Dewpoint 68°F
Altimeter 29.90 in.Hg
Derived measurements
Relative humidity 95%
Density altitude 1370 ft.
Remarks
Fully automated report.
Automated weather observing station with precipitation discriminator.
METAR KCJR 010935Z AUTO 00000KT 4SM BR BKN004 OVC015 21/20 A2990 RMK AO2 T02110202

Settings

Location code

InnerDrive.Weather 4.0.6770.0 Release CLR 4.0.30319.42000
Copyright ©2018 Inner Drive Technology. All rights reserved. Portions Copyright ©1986-2018 David Braverman.

Find weather

Site navigation


Skip Navigation Links

Place info

Page info

PayPal - The safer, easier way to pay online!

Return home.

Copyright ©2021 Inner Drive Technology. Purveyors of fine, hand-crafted computer software. Page printed 2021-08-01T11:18:19 UTC.